Ely, MN

12:21 PM CST on December 07, 2016 (GMT -0600)
Ely Municipal

Weather History for KELO - May, 2013

Change the Weather History Date:

Saturday, May 18, 2013

  Actual Average Record
Temperature  
Mean Temperature 50 °F -  
Max Temperature 53 °F 59 °F 87 °F (1998)
Min Temperature 46 °F 35 °F 28 °F (2002)
Degree Days  
Heating Degree Days 16    
Moisture  
Dew Point 47 °F    
Average Humidity 86    
Maximum Humidity 100    
Minimum Humidity 50    
Precipitation  
Precipitation 0.31 in - - ()
Sea Level Pressure  
Sea Level Pressure 29.95 in    
Wind  
Wind Speed 5 mph (SE)    
Max Wind Speed 10 mph    
Max Gust Speed -    
Visibility 8 miles    
Events Rain    
Averages and records for this station are not official NWS values.
T = Trace of Precipitation, MM = Missing Value Source: NWS Daily Summary

Daily Weather History Graph

Daily Weather History Graph

Search for Another Location

Airport or City:

Trip Planner

Search our weather history database for the weather conditions in past years. The results will help you decide how hot, cold, wet, or windy it might be!

Date:

Astronomy

May. 18, 2013 Rise Set
Actual Time 5:25 AM CDT 8:43 PM CDT
Civil Twilight 4:47 AM CDT 9:20 PM CDT
Nautical Twilight 3:58 AM CDT 10:10 PM CDT
Astronomical Twilight 2:56 AM CDT 11:13 PM CDT
Moon 1:17 PM CDT (5/18) 1:49 AM CDT (5/18)
Length of Visible Light 16h 32m
Length of Day
15h 17m
First Quarter, 55% of the Moon is Illuminated
May 18
First Quarter
May 24
Full
May 31
Last Quarter
Jun 8
New
Jun 16
First Quarter

Hourly Weather History & Observations

Time (CDT) Temp. Dew Point Humidity Pressure Visibility Wind Dir Wind Speed Gust Speed Precip Events Conditions
12:13 AM 48.2 °F 33.8 °F 58% 30.06 in 10.0 mi SE 5.8 mph - N/A   Overcast
12:33 AM 50.0 °F 33.8 °F 54% 30.05 in 10.0 mi ESE 8.1 mph - N/A   Overcast
12:52 AM 50.0 °F 33.8 °F 54% 30.04 in 10.0 mi ESE 6.9 mph - N/A   Overcast
1:13 AM 51.8 °F 33.8 °F 50% 30.03 in 10.0 mi ESE 10.4 mph - N/A   Overcast
1:33 AM 50.0 °F 33.8 °F 54% 30.02 in 10.0 mi ESE 9.2 mph - N/A   Overcast
1:52 AM 50.0 °F 33.8 °F 54% 30.02 in 10.0 mi ESE 8.1 mph - N/A   Overcast
2:13 AM 48.2 °F 33.8 °F 58% 30.02 in 10.0 mi ESE 8.1 mph - N/A   Overcast
2:33 AM 48.2 °F 35.6 °F 62% 30.01 in 10.0 mi ESE 4.6 mph - N/A   Overcast
2:52 AM 48.2 °F 35.6 °F 62% 30.00 in 10.0 mi East 4.6 mph - N/A   Overcast
3:13 AM 48.2 °F 35.6 °F 62% 30.01 in 10.0 mi ESE 4.6 mph - N/A   Overcast
3:32 AM 48.2 °F 35.6 °F 62% 30.00 in 10.0 mi ESE 3.5 mph - N/A   Overcast
3:53 AM 48.2 °F 37.4 °F 66% 30.01 in 10.0 mi East 4.6 mph - N/A   Overcast
4:13 AM 48.2 °F 37.4 °F 66% 30.01 in 10.0 mi Calm Calm - N/A   Overcast
4:33 AM 48.2 °F 37.4 °F 66% 30.00 in 10.0 mi East 3.5 mph - N/A   Overcast
4:52 AM 48.2 °F 37.4 °F 66% 29.99 in 10.0 mi East 3.5 mph - N/A   Overcast
5:13 AM 48.2 °F 39.2 °F 71% 29.99 in 10.0 mi East 3.5 mph - N/A   Overcast
5:33 AM 48.2 °F 39.2 °F 71% 29.99 in 10.0 mi East 3.5 mph - N/A   Overcast
5:52 AM 48.2 °F 39.2 °F 71% 29.99 in 10.0 mi East 3.5 mph - N/A   Overcast
6:13 AM 46.4 °F 42.8 °F 87% 30.00 in 4.0 mi Calm Calm - 0.01 in Rain Heavy Rain
6:33 AM 46.4 °F 44.6 °F 93% 30.00 in 10.0 mi Calm Calm - 0.05 in Rain Rain
6:52 AM 46.4 °F 44.6 °F 93% 30.00 in 10.0 mi Calm Calm - 0.06 in   Overcast
7:13 AM 46.4 °F 44.6 °F 93% 30.01 in 3.0 mi Calm Calm - 0.04 in Rain Heavy Rain
7:33 AM 46.4 °F 44.6 °F 93% 30.00 in 7.0 mi Calm Calm - 0.06 in Rain Rain
7:52 AM 48.2 °F 46.4 °F 93% 30.00 in 7.0 mi Calm Calm - 0.10 in Rain Rain
8:13 AM 48.2 °F 46.4 °F 93% 30.00 in 7.0 mi South 4.6 mph - 0.02 in Rain Rain
8:33 AM 48.2 °F 46.4 °F 93% 29.99 in 10.0 mi SE 5.8 mph - 0.11 in Rain Light Rain
8:52 AM 48.2 °F 46.4 °F 93% 29.98 in 10.0 mi ESE 3.5 mph - 0.11 in Rain Light Rain
9:13 AM 48.2 °F 46.4 °F 93% 29.98 in 10.0 mi ESE 4.6 mph - N/A   Overcast
9:33 AM 50.0 °F 48.2 °F 94% 29.98 in 2.5 mi SE 5.8 mph - N/A   Overcast
9:52 AM 50.0 °F 48.2 °F 94% 29.97 in 4.0 mi SE 5.8 mph - N/A   Overcast
10:13 AM 50.0 °F 48.2 °F 94% 29.97 in 5.0 mi SSE 5.8 mph - N/A   Drizzle
10:33 AM 50.0 °F 48.2 °F 94% 29.97 in 10.0 mi SSE 3.5 mph - N/A   Overcast
10:52 AM 51.8 °F 48.2 °F 88% 29.97 in 10.0 mi SE 8.1 mph - N/A Rain Rain
11:13 AM 51.8 °F 48.2 °F 88% 29.96 in 10.0 mi SE 8.1 mph - 0.01 in   Overcast
11:33 AM 51.8 °F 50.0 °F 94% 29.95 in 10.0 mi SE 9.2 mph - 0.01 in   Overcast
11:52 AM 51.8 °F 50.0 °F 94% 29.96 in 10.0 mi SSE 6.9 mph - 0.01 in   Overcast
12:13 PM 51.8 °F 50.0 °F 94% 29.96 in 10.0 mi SSE 8.1 mph - N/A Rain Light Rain
12:33 PM 51.8 °F 50.0 °F 94% 29.95 in 10.0 mi South 9.2 mph - N/A Rain Light Rain
12:52 PM 51.8 °F 50.0 °F 94% 29.96 in 10.0 mi South 6.9 mph - N/A   Overcast
1:13 PM 51.8 °F 50.0 °F 94% 29.95 in 7.0 mi South 5.8 mph - N/A Rain Light Rain
1:33 PM 51.8 °F 50.0 °F 94% 29.94 in 10.0 mi ESE 5.8 mph - 0.01 in Rain Light Rain
1:52 PM 51.8 °F 50.0 °F 94% 29.93 in 10.0 mi ESE 5.8 mph - N/A Rain Light Rain
2:13 PM 51.8 °F 50.0 °F 94% 29.93 in 5.0 mi ESE 3.5 mph - N/A Rain Light Rain
2:33 PM 51.8 °F 50.0 °F 94% 29.93 in 7.0 mi ESE 3.5 mph - 0.01 in Rain Light Rain
2:52 PM 51.8 °F 51.8 °F 100% 29.92 in 5.0 mi Calm Calm - 0.01 in Rain Rain
3:13 PM 51.8 °F 51.8 °F 100% 29.92 in 7.0 mi SE 3.5 mph - N/A Rain Light Rain
3:33 PM 53.6 °F 51.8 °F 94% 29.92 in 5.0 mi SE 8.1 mph - N/A   Overcast
3:52 PM 53.6 °F 51.8 °F 94% 29.91 in 5.0 mi ESE 6.9 mph - N/A   Overcast
4:13 PM 53.6 °F 51.8 °F 94% 29.92 in 3.0 mi SE 8.1 mph - N/A   Overcast
4:33 PM 53.6 °F 51.8 °F 94% 29.91 in 2.5 mi SE 5.8 mph - N/A   Light Drizzle
4:52 PM 53.6 °F 51.8 °F 94% 29.91 in 4.0 mi SE 8.1 mph - N/A   Overcast
5:06 PM 53.6 °F 51.8 °F 94% 29.91 in 7.0 mi SE 6.9 mph - N/A   Overcast
5:33 PM 53.6 °F 51.8 °F 94% 29.91 in 10.0 mi SSE 4.6 mph - N/A   Overcast
5:53 PM 53.6 °F 51.8 °F 94% 29.91 in 5.0 mi SE 5.8 mph - N/A   Overcast
6:13 PM 53.6 °F 53.6 °F 100% 29.91 in 5.0 mi SE 3.5 mph - N/A   Overcast
6:32 PM 53.6 °F 53.6 °F 100% 29.91 in 3.0 mi SSE 3.5 mph - N/A   Overcast
6:53 PM 53.6 °F 53.6 °F 100% 29.91 in 2.0 mi SSE 3.5 mph - N/A   Overcast
7:13 PM 53.6 °F 53.6 °F 100% 29.90 in 3.0 mi SSE 5.8 mph - N/A   Overcast
7:32 PM 53.6 °F 53.6 °F 100% 29.90 in 4.0 mi South 4.6 mph - N/A   Overcast
7:53 PM 53.6 °F 53.6 °F 100% 29.89 in 7.0 mi South 6.9 mph - N/A   Overcast
8:12 PM 53.6 °F 51.8 °F 94% 29.89 in 10.0 mi South 5.8 mph - N/A   Overcast
8:33 PM 53.6 °F 51.8 °F 94% 29.89 in 7.0 mi Calm Calm - N/A   Overcast
8:53 PM 53.6 °F 51.8 °F 94% 29.89 in 7.0 mi South 3.5 mph - N/A   Overcast
9:12 PM 53.6 °F 51.8 °F 94% 29.89 in 7.0 mi SSE 5.8 mph - N/A   Mostly Cloudy
9:33 PM 53.6 °F 51.8 °F 94% 29.89 in 5.0 mi South 5.8 mph - 0.01 in Rain Light Rain
9:53 PM 53.6 °F 51.8 °F 94% 29.89 in 5.0 mi South 4.6 mph - 0.01 in   Drizzle
10:13 PM 53.6 °F 51.8 °F 94% 29.89 in 7.0 mi Calm Calm - N/A   Overcast
10:33 PM 53.6 °F 51.8 °F 94% 29.89 in 7.0 mi SSE 4.6 mph - N/A   Overcast
10:53 PM 53.6 °F 51.8 °F 94% 29.88 in 7.0 mi South 4.6 mph - N/A   Overcast
11:12 PM 53.6 °F 51.8 °F 94% 29.87 in 7.0 mi Calm Calm - N/A   Mostly Cloudy
11:33 PM 53.6 °F 51.8 °F 94% 29.87 in 7.0 mi Calm Calm - N/A   Clear
11:53 PM 53.6 °F 51.8 °F 94% 29.87 in 10.0 mi Calm Calm - N/A   Clear